sensor_id;sensor_type;location;lat;lon;timestamp;P1;durP1;ratioP1;P2;durP2;ratioP2
7529;SDS011;3806;52.270;10.544;2023-04-01T00:01:05;2.22;;;1.00;;
7529;SDS011;3806;52.270;10.544;2023-04-01T00:03:31;1.08;;;0.52;;
7529;SDS011;3806;52.270;10.544;2023-04-01T00:05:58;2.40;;;0.98;;
7529;SDS011;3806;52.270;10.544;2023-04-01T00:08:26;5.30;;;1.00;;
7529;SDS011;3806;52.270;10.544;2023-04-01T00:10:52;2.40;;;1.00;;
7529;SDS011;3806;52.270;10.544;2023-04-01T00:13:18;3.03;;;0.73;;
7529;SDS011;3806;52.270;10.544;2023-04-01T00:15:44;4.82;;;0.88;;
7529;SDS011;3806;52.270;10.544;2023-04-01T00:18:10;1.90;;;1.05;;
7529;SDS011;3806;52.270;10.544;2023-04-01T00:20:37;5.07;;;1.00;;
7529;SDS011;3806;52.270;10.544;2023-04-01T00:23:03;4.03;;;0.93;;
7529;SDS011;3806;52.270;10.544;2023-04-01T00:25:30;2.35;;;1.00;;
7529;SDS011;3806;52.270;10.544;2023-04-01T00:27:56;2.67;;;0.98;;
7529;SDS011;3806;52.270;10.544;2023-04-01T00:30:21;3.17;;;1.23;;
7529;SDS011;3806;52.270;10.544;2023-04-01T00:32:47;1.50;;;0.77;;
7529;SDS011;3806;52.270;10.544;2023-04-01T00:35:17;3.65;;;1.25;;
7529;SDS011;3806;52.270;10.544;2023-04-01T00:37:42;4.63;;;1.00;;
7529;SDS011;3806;52.270;10.544;2023-04-01T00:40:11;5.53;;;1.20;;
7529;SDS011;3806;52.270;10.544;2023-04-01T00:42:52;1.88;;;0.70;;
7529;SDS011;3806;52.270;10.544;2023-04-01T00:47:58;2.53;;;1.08;;
7529;SDS011;3806;52.270;10.544;2023-04-01T00:50:27;1.17;;;0.80;;
7529;SDS011;3806;52.270;10.544;2023-04-01T00:52:53;1.42;;;0.80;;
7529;SDS011;3806;52.270;10.544;2023-04-01T00:55:19;1.77;;;1.13;;
7529;SDS011;3806;52.270;10.544;2023-04-01T00:57:47;1.85;;;1.02;;
7529;SDS011;3806;52.270;10.544;2023-04-01T01:00:15;4.47;;;1.00;;
7529;SDS011;3806;52.270;10.544;2023-04-01T01:02:42;4.25;;;0.80;;
7529;SDS011;3806;52.270;10.544;2023-04-01T01:05:13;2.45;;;0.80;;
7529;SDS011;3806;52.270;10.544;2023-04-01T01:07:43;2.65;;;0.93;;
7529;SDS011;3806;52.270;10.544;2023-04-01T01:10:35;1.70;;;0.85;;
7529;SDS011;3806;52.270;10.544;2023-04-01T01:16:00;4.07;;;1.20;;
7529;SDS011;3806;52.270;10.544;2023-04-01T01:21:17;4.03;;;0.75;;
7529;SDS011;3806;52.270;10.544;2023-04-01T01:23:57;2.97;;;0.77;;
7529;SDS011;3806;52.270;10.544;2023-04-01T01:26:58;2.20;;;0.65;;
7529;SDS011;3806;52.270;10.544;2023-04-01T01:29:35;1.02;;;0.50;;
7529;SDS011;3806;52.270;10.544;2023-04-01T01:35:27;1.63;;;0.85;;
7529;SDS011;3806;52.270;10.544;2023-04-01T01:37:59;2.00;;;0.88;;
7529;SDS011;3806;52.270;10.544;2023-04-01T01:40:27;1.40;;;0.55;;
7529;SDS011;3806;52.270;10.544;2023-04-01T01:42:57;3.40;;;0.88;;
7529;SDS011;3806;52.270;10.544;2023-04-01T01:45:28;2.47;;;0.90;;
7529;SDS011;3806;52.270;10.544;2023-04-01T01:47:55;3.70;;;1.73;;
7529;SDS011;3806;52.270;10.544;2023-04-01T01:50:22;1.25;;;0.70;;
7529;SDS011;3806;52.270;10.544;2023-04-01T01:52:51;2.45;;;0.85;;
7529;SDS011;3806;52.270;10.544;2023-04-01T01:57:58;1.17;;;0.73;;
7529;SDS011;3806;52.270;10.544;2023-04-01T02:00:33;3.90;;;1.20;;
7529;SDS011;3806;52.270;10.544;2023-04-01T02:02:59;1.35;;;0.50;;
7529;SDS011;3806;52.270;10.544;2023-04-01T02:05:26;1.00;;;0.52;;
7529;SDS011;3806;52.270;10.544;2023-04-01T02:07:57;2.42;;;0.82;;
7529;SDS011;3806;52.270;10.544;2023-04-01T02:10:31;2.60;;;0.63;;
7529;SDS011;3806;52.270;10.544;2023-04-01T02:13:02;3.22;;;0.77;;
7529;SDS011;3806;52.270;10.544;2023-04-01T02:15:35;2.75;;;0.82;;
7529;SDS011;3806;52.270;10.544;2023-04-01T02:18:06;4.53;;;0.75;;
7529;SDS011;3806;52.270;10.544;2023-04-01T02:20:32;1.58;;;0.73;;
7529;SDS011;3806;52.270;10.544;2023-04-01T02:22:58;3.58;;;1.15;;
7529;SDS011;3806;52.270;10.544;2023-04-01T02:25:26;1.42;;;0.60;;
7529;SDS011;3806;52.270;10.544;2023-04-01T02:27:55;2.42;;;1.38;;
7529;SDS011;3806;52.270;10.544;2023-04-01T02:30:23;1.52;;;0.70;;
7529;SDS011;3806;52.270;10.544;2023-04-01T02:32:50;2.17;;;0.80;;
7529;SDS011;3806;52.270;10.544;2023-04-01T02:35:16;2.33;;;1.00;;
7529;SDS011;3806;52.270;10.544;2023-04-01T02:37:42;3.67;;;1.10;;
7529;SDS011;3806;52.270;10.544;2023-04-01T02:40:10;0.60;;;0.43;;
7529;SDS011;3806;52.270;10.544;2023-04-01T02:42:37;2.80;;;1.10;;
7529;SDS011;3806;52.270;10.544;2023-04-01T02:45:03;1.73;;;0.68;;
7529;SDS011;3806;52.270;10.544;2023-04-01T02:47:30;4.03;;;0.95;;
7529;SDS011;3806;52.270;10.544;2023-04-01T02:49:55;2.78;;;0.80;;
7529;SDS011;3806;52.270;10.544;2023-04-01T02:52:27;2.53;;;0.90;;
7529;SDS011;3806;52.270;10.544;2023-04-01T02:54:54;1.63;;;0.77;;
7529;SDS011;3806;52.270;10.544;2023-04-01T02:57:20;2.60;;;0.98;;
7529;SDS011;3806;52.270;10.544;2023-04-01T02:59:45;0.63;;;0.60;;
7529;SDS011;3806;52.270;10.544;2023-04-01T03:02:11;2.58;;;0.70;;
7529;SDS011;3806;52.270;10.544;2023-04-01T03:04:37;2.80;;;0.57;;
7529;SDS011;3806;52.270;10.544;2023-04-01T03:07:02;1.48;;;0.90;;
7529;SDS011;3806;52.270;10.544;2023-04-01T03:09:28;1.75;;;0.85;;
7529;SDS011;3806;52.270;10.544;2023-04-01T03:11:54;0.60;;;0.60;;
7529;SDS011;3806;52.270;10.544;2023-04-01T03:14:19;2.78;;;0.80;;
7529;SDS011;3806;52.270;10.544;2023-04-01T03:16:45;1.65;;;0.70;;
7529;SDS011;3806;52.270;10.544;2023-04-01T03:19:11;2.35;;;0.70;;
7529;SDS011;3806;52.270;10.544;2023-04-01T03:21:36;1.73;;;1.00;;
7529;SDS011;3806;52.270;10.544;2023-04-01T03:24:02;0.98;;;0.77;;
7529;SDS011;3806;52.270;10.544;2023-04-01T03:26:28;2.72;;;0.90;;
7529;SDS011;3806;52.270;10.544;2023-04-01T03:28:53;1.77;;;0.90;;
7529;SDS011;3806;52.270;10.544;2023-04-01T03:31:20;2.42;;;1.27;;
7529;SDS011;3806;52.270;10.544;2023-04-01T03:33:46;4.75;;;1.27;;
7529;SDS011;3806;52.270;10.544;2023-04-01T03:36:11;2.05;;;1.00;;
7529;SDS011;3806;52.270;10.544;2023-04-01T03:38:38;0.68;;;0.60;;
7529;SDS011;3806;52.270;10.544;2023-04-01T03:41:05;3.85;;;1.20;;
7529;SDS011;3806;52.270;10.544;2023-04-01T03:43:31;3.50;;;1.45;;
7529;SDS011;3806;52.270;10.544;2023-04-01T03:45:57;1.20;;;0.70;;
7529;SDS011;3806;52.270;10.544;2023-04-01T03:48:23;1.52;;;1.05;;
7529;SDS011;3806;52.270;10.544;2023-04-01T03:50:48;2.47;;;1.10;;
7529;SDS011;3806;52.270;10.544;2023-04-01T03:53:14;4.18;;;1.33;;
7529;SDS011;3806;52.270;10.544;2023-04-01T03:55:40;4.80;;;1.20;;
7529;SDS011;3806;52.270;10.544;2023-04-01T03:58:06;3.78;;;1.17;;
7529;SDS011;3806;52.270;10.544;2023-04-01T04:00:32;1.20;;;0.65;;
7529;SDS011;3806;52.270;10.544;2023-04-01T04:02:58;2.20;;;0.77;;
7529;SDS011;3806;52.270;10.544;2023-04-01T04:05:24;3.53;;;1.00;;
7529;SDS011;3806;52.270;10.544;2023-04-01T04:07:51;3.38;;;0.80;;
7529;SDS011;3806;52.270;10.544;2023-04-01T04:10:17;2.95;;;0.80;;
7529;SDS011;3806;52.270;10.544;2023-04-01T04:12:42;4.53;;;1.08;;
7529;SDS011;3806;52.270;10.544;2023-04-01T04:15:08;4.13;;;1.30;;
7529;SDS011;3806;52.270;10.544;2023-04-01T04:17:34;1.55;;;0.65;;
7529;SDS011;3806;52.270;10.544;2023-04-01T04:20:00;2.70;;;0.77;;
7529;SDS011;3806;52.270;10.544;2023-04-01T04:22:25;1.55;;;0.60;;
7529;SDS011;3806;52.270;10.544;2023-04-01T04:24:51;1.73;;;0.57;;
7529;SDS011;3806;52.270;10.544;2023-04-01T04:27:17;1.70;;;0.68;;
7529;SDS011;3806;52.270;10.544;2023-04-01T04:29:42;1.10;;;0.55;;
7529;SDS011;3806;52.270;10.544;2023-04-01T04:32:08;3.25;;;0.82;;
7529;SDS011;3806;52.270;10.544;2023-04-01T04:34:33;0.75;;;0.40;;
7529;SDS011;3806;52.270;10.544;2023-04-01T04:36:59;2.28;;;0.82;;
7529;SDS011;3806;52.270;10.544;2023-04-01T04:39:25;1.20;;;0.75;;
7529;SDS011;3806;52.270;10.544;2023-04-01T04:41:50;2.65;;;0.88;;
7529;SDS011;3806;52.270;10.544;2023-04-01T04:44:16;0.82;;;0.47;;
7529;SDS011;3806;52.270;10.544;2023-04-01T04:46:41;3.63;;;0.77;;
7529;SDS011;3806;52.270;10.544;2023-04-01T04:49:07;1.58;;;0.60;;
7529;SDS011;3806;52.270;10.544;2023-04-01T04:51:32;2.65;;;0.70;;
7529;SDS011;3806;52.270;10.544;2023-04-01T04:54:00;2.80;;;1.25;;
7529;SDS011;3806;52.270;10.544;2023-04-01T04:56:26;1.15;;;1.05;;
7529;SDS011;3806;52.270;10.544;2023-04-01T04:58:52;4.28;;;0.73;;
7529;SDS011;3806;52.270;10.544;2023-04-01T05:01:18;2.03;;;0.88;;
7529;SDS011;3806;52.270;10.544;2023-04-01T05:03:44;4.47;;;1.23;;
7529;SDS011;3806;52.270;10.544;2023-04-01T05:06:11;2.10;;;0.75;;
7529;SDS011;3806;52.270;10.544;2023-04-01T05:08:39;2.35;;;0.70;;
7529;SDS011;3806;52.270;10.544;2023-04-01T05:11:06;4.63;;;1.92;;
7529;SDS011;3806;52.270;10.544;2023-04-01T05:13:35;1.08;;;0.93;;
7529;SDS011;3806;52.270;10.544;2023-04-01T05:16:01;1.30;;;0.90;;
7529;SDS011;3806;52.270;10.544;2023-04-01T05:18:26;1.88;;;0.63;;
7529;SDS011;3806;52.270;10.544;2023-04-01T05:20:52;0.70;;;0.50;;
7529;SDS011;3806;52.270;10.544;2023-04-01T05:23:20;3.42;;;0.95;;
7529;SDS011;3806;52.270;10.544;2023-04-01T05:25:47;2.28;;;0.90;;
7529;SDS011;3806;52.270;10.544;2023-04-01T05:28:14;3.55;;;0.82;;
7529;SDS011;3806;52.270;10.544;2023-04-01T05:30:40;2.42;;;1.02;;
7529;SDS011;3806;52.270;10.544;2023-04-01T05:33:07;1.30;;;0.73;;
7529;SDS011;3806;52.270;10.544;2023-04-01T05:35:32;1.55;;;0.77;;
7529;SDS011;3806;52.270;10.544;2023-04-01T05:37:58;1.33;;;0.95;;
7529;SDS011;3806;52.270;10.544;2023-04-01T05:40:24;1.50;;;0.90;;
7529;SDS011;3806;52.270;10.544;2023-04-01T05:42:49;2.83;;;0.82;;
7529;SDS011;3806;52.270;10.544;2023-04-01T05:45:15;2.70;;;1.02;;
7529;SDS011;3806;52.270;10.544;2023-04-01T05:47:41;1.83;;;0.93;;
7529;SDS011;3806;52.270;10.544;2023-04-01T05:50:07;2.97;;;0.95;;
7529;SDS011;3806;52.270;10.544;2023-04-01T05:52:35;2.33;;;1.20;;
7529;SDS011;3806;52.270;10.544;2023-04-01T05:55:01;2.10;;;0.90;;
7529;SDS011;3806;52.270;10.544;2023-04-01T05:57:26;1.98;;;0.95;;
7529;SDS011;3806;52.270;10.544;2023-04-01T05:59:52;1.75;;;0.80;;
7529;SDS011;3806;52.270;10.544;2023-04-01T06:02:17;2.85;;;1.05;;
7529;SDS011;3806;52.270;10.544;2023-04-01T06:04:43;2.78;;;0.98;;
7529;SDS011;3806;52.270;10.544;2023-04-01T06:07:13;1.20;;;0.85;;
7529;SDS011;3806;52.270;10.544;2023-04-01T06:09:40;1.50;;;0.88;;
7529;SDS011;3806;52.270;10.544;2023-04-01T06:14:53;2.85;;;0.95;;
7529;SDS011;3806;52.270;10.544;2023-04-01T06:20:49;2.83;;;1.10;;
7529;SDS011;3806;52.270;10.544;2023-04-01T06:23:38;2.55;;;0.50;;
7529;SDS011;3806;52.270;10.544;2023-04-01T06:28:56;1.83;;;0.90;;
7529;SDS011;3806;52.270;10.544;2023-04-01T06:34:11;1.27;;;0.60;;
7529;SDS011;3806;52.270;10.544;2023-04-01T06:36:58;3.53;;;0.80;;
7529;SDS011;3806;52.270;10.544;2023-04-01T06:39:48;1.20;;;0.73;;
7529;SDS011;3806;52.270;10.544;2023-04-01T06:42:43;1.27;;;0.60;;
7529;SDS011;3806;52.270;10.544;2023-04-01T06:48:41;1.45;;;1.08;;
7529;SDS011;3806;52.270;10.544;2023-04-01T06:53:58;1.02;;;0.60;;
7529;SDS011;3806;52.270;10.544;2023-04-01T06:56:33;2.88;;;0.80;;
7529;SDS011;3806;52.270;10.544;2023-04-01T06:59:05;1.58;;;0.63;;
7529;SDS011;3806;52.270;10.544;2023-04-01T07:01:33;1.77;;;0.82;;
7529;SDS011;3806;52.270;10.544;2023-04-01T07:04:05;0.63;;;0.63;;
7529;SDS011;3806;52.270;10.544;2023-04-01T07:09:18;2.63;;;0.68;;
7529;SDS011;3806;52.270;10.544;2023-04-01T07:11:47;2.50;;;0.57;;
7529;SDS011;3806;52.270;10.544;2023-04-01T07:14:15;0.90;;;0.50;;
7529;SDS011;3806;52.270;10.544;2023-04-01T07:16:53;1.23;;;0.55;;
7529;SDS011;3806;52.270;10.544;2023-04-01T07:19:35;0.82;;;0.65;;
7529;SDS011;3806;52.270;10.544;2023-04-01T07:27:52;1.70;;;0.50;;
7529;SDS011;3806;52.270;10.544;2023-04-01T07:30:21;1.67;;;0.63;;
7529;SDS011;3806;52.270;10.544;2023-04-01T07:35:32;1.75;;;0.55;;
7529;SDS011;3806;52.270;10.544;2023-04-01T07:38:10;1.67;;;0.50;;
7529;SDS011;3806;52.270;10.544;2023-04-01T07:40:46;0.95;;;0.60;;
7529;SDS011;3806;52.270;10.544;2023-04-01T07:43:30;1.98;;;0.73;;
7529;SDS011;3806;52.270;10.544;2023-04-01T07:49:02;1.02;;;0.50;;
7529;SDS011;3806;52.270;10.544;2023-04-01T07:51:45;1.90;;;0.47;;
7529;SDS011;3806;52.270;10.544;2023-04-01T07:57:30;0.80;;;0.47;;
7529;SDS011;3806;52.270;10.544;2023-04-01T08:00:25;2.13;;;0.90;;
7529;SDS011;3806;52.270;10.544;2023-04-01T08:03:03;3.15;;;0.90;;
7529;SDS011;3806;52.270;10.544;2023-04-01T08:06:00;2.47;;;0.50;;
7529;SDS011;3806;52.270;10.544;2023-04-01T08:08:45;0.82;;;0.40;;
7529;SDS011;3806;52.270;10.544;2023-04-01T08:11:27;1.58;;;0.47;;
7529;SDS011;3806;52.270;10.544;2023-04-01T08:22:45;0.75;;;0.32;;
7529;SDS011;3806;52.270;10.544;2023-04-01T08:25:20;0.75;;;0.40;;
7529;SDS011;3806;52.270;10.544;2023-04-01T08:33:24;1.60;;;0.60;;
7529;SDS011;3806;52.270;10.544;2023-04-01T08:35:54;0.75;;;0.30;;
7529;SDS011;3806;52.270;10.544;2023-04-01T08:38:31;0.88;;;0.30;;
7529;SDS011;3806;52.270;10.544;2023-04-01T08:41:12;0.93;;;0.30;;
7529;SDS011;3806;52.270;10.544;2023-04-01T08:43:48;1.00;;;0.25;;
7529;SDS011;3806;52.270;10.544;2023-04-01T08:46:32;2.38;;;0.47;;
7529;SDS011;3806;52.270;10.544;2023-04-01T08:49:09;0.73;;;0.30;;
7529;SDS011;3806;52.270;10.544;2023-04-01T08:52:18;0.80;;;0.20;;
7529;SDS011;3806;52.270;10.544;2023-04-01T08:57:37;1.98;;;0.50;;
7529;SDS011;3806;52.270;10.544;2023-04-01T09:03:04;1.67;;;0.95;;
7529;SDS011;3806;52.270;10.544;2023-04-01T09:08:45;0.47;;;0.47;;
7529;SDS011;3806;52.270;10.544;2023-04-01T09:11:33;1.10;;;0.40;;
7529;SDS011;3806;52.270;10.544;2023-04-01T09:17:21;1.00;;;0.50;;
7529;SDS011;3806;52.270;10.544;2023-04-01T09:22:57;0.17;;;0.10;;
7529;SDS011;3806;52.270;10.544;2023-04-01T09:34:26;0.10;;;0.08;;
7529;SDS011;3806;52.270;10.544;2023-04-01T09:37:36;0.50;;;0.30;;
7529;SDS011;3806;52.270;10.544;2023-04-01T09:42:56;0.80;;;0.38;;
7529;SDS011;3806;52.270;10.544;2023-04-01T09:48:46;0.80;;;0.40;;
7529;SDS011;3806;52.270;10.544;2023-04-01T09:54:30;1.73;;;0.40;;
7529;SDS011;3806;52.270;10.544;2023-04-01T09:57:13;0.30;;;0.15;;
7529;SDS011;3806;52.270;10.544;2023-04-01T09:59:58;1.05;;;0.20;;
7529;SDS011;3806;52.270;10.544;2023-04-01T10:02:58;0.75;;;0.28;;
7529;SDS011;3806;52.270;10.544;2023-04-01T10:16:51;0.32;;;0.22;;
7529;SDS011;3806;52.270;10.544;2023-04-01T10:19:31;0.93;;;0.20;;
7529;SDS011;3806;52.270;10.544;2023-04-01T10:36:06;0.95;;;0.73;;
7529;SDS011;3806;52.270;10.544;2023-04-01T10:50:41;0.38;;;0.38;;
7529;SDS011;3806;52.270;10.544;2023-04-01T10:53:15;0.63;;;0.30;;
7529;SDS011;3806;52.270;10.544;2023-04-01T11:05:25;0.40;;;0.40;;
7529;SDS011;3806;52.270;10.544;2023-04-01T11:13:40;0.25;;;0.20;;
7529;SDS011;3806;52.270;10.544;2023-04-01T11:19:42;0.55;;;0.13;;
7529;SDS011;3806;52.270;10.544;2023-04-01T11:25:07;0.13;;;0.13;;
7529;SDS011;3806;52.270;10.544;2023-04-01T11:27:56;0.47;;;0.35;;
7529;SDS011;3806;52.270;10.544;2023-04-01T11:33:47;0.25;;;0.20;;
7529;SDS011;3806;52.270;10.544;2023-04-01T11:39:17;0.75;;;0.40;;
7529;SDS011;3806;52.270;10.544;2023-04-01T11:44:58;0.30;;;0.28;;
7529;SDS011;3806;52.270;10.544;2023-04-01T11:47:57;0.55;;;0.30;;
7529;SDS011;3806;52.270;10.544;2023-04-01T11:53:12;0.68;;;0.20;;
7529;SDS011;3806;52.270;10.544;2023-04-01T12:09:46;0.95;;;0.55;;
7529;SDS011;3806;52.270;10.544;2023-04-01T12:12:38;0.80;;;0.50;;
7529;SDS011;3806;52.270;10.544;2023-04-01T12:29:37;0.45;;;0.30;;
7529;SDS011;3806;52.270;10.544;2023-04-01T12:38:04;1.25;;;0.52;;
7529;SDS011;3806;52.270;10.544;2023-04-01T12:43:21;0.93;;;0.50;;
7529;SDS011;3806;52.270;10.544;2023-04-01T12:54:08;0.70;;;0.50;;
7529;SDS011;3806;52.270;10.544;2023-04-01T12:57:13;1.95;;;0.90;;
7529;SDS011;3806;52.270;10.544;2023-04-01T13:03:02;0.88;;;0.70;;
7529;SDS011;3806;52.270;10.544;2023-04-01T13:06:30;0.52;;;0.40;;
7529;SDS011;3806;52.270;10.544;2023-04-01T13:09:11;3.13;;;1.00;;
7529;SDS011;3806;52.270;10.544;2023-04-01T13:17:31;1.73;;;0.95;;
7529;SDS011;3806;52.270;10.544;2023-04-01T13:20:14;2.05;;;0.75;;
7529;SDS011;3806;52.270;10.544;2023-04-01T13:31:25;1.40;;;0.65;;
7529;SDS011;3806;52.270;10.544;2023-04-01T13:37:15;1.20;;;0.90;;
7529;SDS011;3806;52.270;10.544;2023-04-01T13:39:57;2.13;;;0.75;;
7529;SDS011;3806;52.270;10.544;2023-04-01T13:42:56;0.93;;;0.70;;
7529;SDS011;3806;52.270;10.544;2023-04-01T13:45:50;1.33;;;0.63;;
7529;SDS011;3806;52.270;10.544;2023-04-01T13:51:37;1.25;;;0.57;;
7529;SDS011;3806;52.270;10.544;2023-04-01T14:00:03;0.50;;;0.50;;
7529;SDS011;3806;52.270;10.544;2023-04-01T14:02:54;1.15;;;0.77;;
7529;SDS011;3806;52.270;10.544;2023-04-01T14:15:07;0.40;;;0.40;;
7529;SDS011;3806;52.270;10.544;2023-04-01T14:28:28;0.30;;;0.30;;
7529;SDS011;3806;52.270;10.544;2023-04-01T14:31:04;1.30;;;0.90;;
7529;SDS011;3806;52.270;10.544;2023-04-01T14:44:50;0.60;;;0.60;;
7529;SDS011;3806;52.270;10.544;2023-04-01T14:50:21;1.45;;;0.80;;
7529;SDS011;3806;52.270;10.544;2023-04-01T15:00:43;1.17;;;0.90;;
7529;SDS011;3806;52.270;10.544;2023-04-01T15:03:47;1.58;;;0.90;;
7529;SDS011;3806;52.270;10.544;2023-04-01T15:06:35;2.65;;;1.15;;
7529;SDS011;3806;52.270;10.544;2023-04-01T15:15:17;1.70;;;1.20;;
7529;SDS011;3806;52.270;10.544;2023-04-01T15:18:08;1.70;;;0.90;;
7529;SDS011;3806;52.270;10.544;2023-04-01T15:26:35;1.92;;;0.80;;
7529;SDS011;3806;52.270;10.544;2023-04-01T15:32:24;1.08;;;0.65;;
7529;SDS011;3806;52.270;10.544;2023-04-01T15:38:06;1.00;;;0.65;;
7529;SDS011;3806;52.270;10.544;2023-04-01T15:40:53;0.50;;;0.50;;
7529;SDS011;3806;52.270;10.544;2023-04-01T15:43:45;0.65;;;0.60;;
7529;SDS011;3806;52.270;10.544;2023-04-01T15:46:29;0.88;;;0.75;;
7529;SDS011;3806;52.270;10.544;2023-04-01T15:49:16;0.70;;;0.55;;
7529;SDS011;3806;52.270;10.544;2023-04-01T15:51:56;0.57;;;0.40;;
7529;SDS011;3806;52.270;10.544;2023-04-01T15:54:38;1.17;;;0.67;;
7529;SDS011;3806;52.270;10.544;2023-04-01T16:00:04;1.58;;;1.15;;
7529;SDS011;3806;52.270;10.544;2023-04-01T16:02:35;0.80;;;0.80;;
7529;SDS011;3806;52.270;10.544;2023-04-01T16:05:22;0.75;;;0.60;;
7529;SDS011;3806;52.270;10.544;2023-04-01T16:08:17;1.27;;;0.88;;
7529;SDS011;3806;52.270;10.544;2023-04-01T16:11:15;0.80;;;0.77;;
7529;SDS011;3806;52.270;10.544;2023-04-01T16:13:55;0.90;;;0.70;;
7529;SDS011;3806;52.270;10.544;2023-04-01T16:19:44;0.75;;;0.65;;
7529;SDS011;3806;52.270;10.544;2023-04-01T16:22:27;0.70;;;0.63;;
7529;SDS011;3806;52.270;10.544;2023-04-01T16:27:56;1.17;;;0.70;;
7529;SDS011;3806;52.270;10.544;2023-04-01T16:30:37;0.98;;;0.80;;
7529;SDS011;3806;52.270;10.544;2023-04-01T16:33:14;0.75;;;0.60;;
7529;SDS011;3806;52.270;10.544;2023-04-01T16:38:25;0.95;;;0.70;;
7529;SDS011;3806;52.270;10.544;2023-04-01T16:43:44;1.20;;;0.65;;
7529;SDS011;3806;52.270;10.544;2023-04-01T16:46:31;0.68;;;0.60;;
7529;SDS011;3806;52.270;10.544;2023-04-01T16:49:04;0.70;;;0.60;;
7529;SDS011;3806;52.270;10.544;2023-04-01T16:57:18;1.55;;;0.88;;
7529;SDS011;3806;52.270;10.544;2023-04-01T16:59:54;1.02;;;0.90;;
7529;SDS011;3806;52.270;10.544;2023-04-01T17:02:26;0.90;;;0.90;;
7529;SDS011;3806;52.270;10.544;2023-04-01T17:05:03;1.17;;;1.08;;
7529;SDS011;3806;52.270;10.544;2023-04-01T17:21:39;6.55;;;3.53;;
7529;SDS011;3806;52.270;10.544;2023-04-01T17:25:20;3.80;;;2.47;;
7529;SDS011;3806;52.270;10.544;2023-04-01T17:27:42;7.28;;;3.97;;
7529;SDS011;3806;52.270;10.544;2023-04-01T17:30:31;3.92;;;1.80;;
7529;SDS011;3806;52.270;10.544;2023-04-01T17:33:28;2.03;;;1.50;;
7529;SDS011;3806;52.270;10.544;2023-04-01T17:35:57;1.10;;;1.00;;
7529;SDS011;3806;52.270;10.544;2023-04-01T17:47:12;1.08;;;0.80;;
7529;SDS011;3806;52.270;10.544;2023-04-01T17:52:37;1.63;;;1.33;;
7529;SDS011;3806;52.270;10.544;2023-04-01T17:55:28;0.43;;;0.43;;
7529;SDS011;3806;52.270;10.544;2023-04-01T18:06:56;1.20;;;0.85;;
7529;SDS011;3806;52.270;10.544;2023-04-01T18:09:40;0.90;;;0.90;;
7529;SDS011;3806;52.270;10.544;2023-04-01T18:12:31;1.00;;;0.90;;
7529;SDS011;3806;52.270;10.544;2023-04-01T18:20:32;1.10;;;0.80;;
7529;SDS011;3806;52.270;10.544;2023-04-01T18:23:13;0.75;;;0.68;;
7529;SDS011;3806;52.270;10.544;2023-04-01T18:25:48;1.38;;;1.10;;
7529;SDS011;3806;52.270;10.544;2023-04-01T18:28:21;2.55;;;1.17;;
7529;SDS011;3806;52.270;10.544;2023-04-01T18:30:58;0.77;;;0.77;;
7529;SDS011;3806;52.270;10.544;2023-04-01T18:33:49;0.80;;;0.80;;
7529;SDS011;3806;52.270;10.544;2023-04-01T18:42:19;1.10;;;1.00;;
7529;SDS011;3806;52.270;10.544;2023-04-01T18:45:17;2.10;;;1.38;;
7529;SDS011;3806;52.270;10.544;2023-04-01T18:50:58;0.57;;;0.57;;
7529;SDS011;3806;52.270;10.544;2023-04-01T18:53:31;1.45;;;0.90;;
7529;SDS011;3806;52.270;10.544;2023-04-01T18:56:11;1.02;;;0.82;;
7529;SDS011;3806;52.270;10.544;2023-04-01T19:01:33;1.90;;;0.50;;
7529;SDS011;3806;52.270;10.544;2023-04-01T19:06:56;2.00;;;0.80;;
7529;SDS011;3806;52.270;10.544;2023-04-01T19:14:59;0.85;;;0.73;;
7529;SDS011;3806;52.270;10.544;2023-04-01T19:17:40;1.50;;;0.80;;
7529;SDS011;3806;52.270;10.544;2023-04-01T19:20:25;1.20;;;0.90;;
7529;SDS011;3806;52.270;10.544;2023-04-01T19:23:35;2.08;;;1.15;;
7529;SDS011;3806;52.270;10.544;2023-04-01T19:26:26;2.53;;;1.63;;
7529;SDS011;3806;52.270;10.544;2023-04-01T19:32:15;1.60;;;1.20;;
7529;SDS011;3806;52.270;10.544;2023-04-01T19:37:50;1.75;;;1.33;;
7529;SDS011;3806;52.270;10.544;2023-04-01T19:40:32;3.17;;;1.30;;
7529;SDS011;3806;52.270;10.544;2023-04-01T19:54:21;3.00;;;2.00;;
7529;SDS011;3806;52.270;10.544;2023-04-01T19:59:56;7.82;;;2.92;;
7529;SDS011;3806;52.270;10.544;2023-04-01T20:02:56;7.70;;;4.68;;
7529;SDS011;3806;52.270;10.544;2023-04-01T20:08:33;5.75;;;2.85;;
7529;SDS011;3806;52.270;10.544;2023-04-01T20:11:27;3.70;;;2.83;;
7529;SDS011;3806;52.270;10.544;2023-04-01T20:22:54;1.90;;;1.55;;
7529;SDS011;3806;52.270;10.544;2023-04-01T20:25:26;2.70;;;1.75;;
7529;SDS011;3806;52.270;10.544;2023-04-01T20:28:12;3.22;;;2.10;;
7529;SDS011;3806;52.270;10.544;2023-04-01T20:36:13;2.63;;;1.80;;
7529;SDS011;3806;52.270;10.544;2023-04-01T20:47:24;2.25;;;1.92;;
7529;SDS011;3806;52.270;10.544;2023-04-01T20:50:31;3.85;;;2.80;;
7529;SDS011;3806;52.270;10.544;2023-04-01T20:53:16;2.88;;;1.75;;
7529;SDS011;3806;52.270;10.544;2023-04-01T20:58:48;3.25;;;2.40;;
7529;SDS011;3806;52.270;10.544;2023-04-01T21:07:40;4.90;;;2.25;;
7529;SDS011;3806;52.270;10.544;2023-04-01T21:10:24;4.03;;;2.50;;
7529;SDS011;3806;52.270;10.544;2023-04-01T21:13:21;4.47;;;2.30;;
7529;SDS011;3806;52.270;10.544;2023-04-01T21:19:00;7.20;;;4.40;;
7529;SDS011;3806;52.270;10.544;2023-04-01T21:22:11;4.10;;;2.75;;
7529;SDS011;3806;52.270;10.544;2023-04-01T21:27:29;4.80;;;2.90;;
7529;SDS011;3806;52.270;10.544;2023-04-01T21:33:32;4.85;;;2.80;;
7529;SDS011;3806;52.270;10.544;2023-04-01T21:36:03;3.88;;;2.70;;
7529;SDS011;3806;52.270;10.544;2023-04-01T21:38:52;4.45;;;2.88;;
7529;SDS011;3806;52.270;10.544;2023-04-01T21:41:33;4.05;;;2.42;;
7529;SDS011;3806;52.270;10.544;2023-04-01T21:47:01;3.90;;;2.60;;
7529;SDS011;3806;52.270;10.544;2023-04-01T21:49:44;5.70;;;3.03;;
7529;SDS011;3806;52.270;10.544;2023-04-01T21:52:35;3.97;;;2.80;;
7529;SDS011;3806;52.270;10.544;2023-04-01T21:55:36;7.40;;;2.75;;
7529;SDS011;3806;52.270;10.544;2023-04-01T21:58:32;6.25;;;2.78;;
7529;SDS011;3806;52.270;10.544;2023-04-01T22:04:17;4.68;;;2.97;;
7529;SDS011;3806;52.270;10.544;2023-04-01T22:07:18;3.33;;;2.20;;
7529;SDS011;3806;52.270;10.544;2023-04-01T22:12:27;4.05;;;2.88;;
7529;SDS011;3806;52.270;10.544;2023-04-01T22:15:26;4.72;;;3.00;;
7529;SDS011;3806;52.270;10.544;2023-04-01T22:18:07;6.25;;;3.05;;
7529;SDS011;3806;52.270;10.544;2023-04-01T22:20:45;3.53;;;2.53;;
7529;SDS011;3806;52.270;10.544;2023-04-01T22:23:50;6.28;;;2.42;;
7529;SDS011;3806;52.270;10.544;2023-04-01T22:26:59;6.15;;;2.75;;
7529;SDS011;3806;52.270;10.544;2023-04-01T22:29:41;3.63;;;2.15;;
7529;SDS011;3806;52.270;10.544;2023-04-01T22:35:03;5.00;;;2.33;;
7529;SDS011;3806;52.270;10.544;2023-04-01T22:40:42;6.43;;;2.42;;
7529;SDS011;3806;52.270;10.544;2023-04-01T22:43:42;5.53;;;2.83;;
7529;SDS011;3806;52.270;10.544;2023-04-01T22:48:47;4.22;;;2.45;;
7529;SDS011;3806;52.270;10.544;2023-04-01T22:51:42;3.83;;;2.78;;
7529;SDS011;3806;52.270;10.544;2023-04-01T22:55:15;7.00;;;2.55;;
7529;SDS011;3806;52.270;10.544;2023-04-01T22:57:28;6.38;;;3.17;;
7529;SDS011;3806;52.270;10.544;2023-04-01T23:00:07;4.82;;;2.83;;
7529;SDS011;3806;52.270;10.544;2023-04-01T23:03:07;6.70;;;2.92;;
7529;SDS011;3806;52.270;10.544;2023-04-01T23:05:55;5.55;;;2.72;;
7529;SDS011;3806;52.270;10.544;2023-04-01T23:08:28;3.83;;;2.20;;
7529;SDS011;3806;52.270;10.544;2023-04-01T23:11:16;5.35;;;3.15;;
7529;SDS011;3806;52.270;10.544;2023-04-01T23:13:48;6.47;;;3.45;;
7529;SDS011;3806;52.270;10.544;2023-04-01T23:16:19;8.13;;;3.55;;
7529;SDS011;3806;52.270;10.544;2023-04-01T23:21:54;5.80;;;2.92;;
7529;SDS011;3806;52.270;10.544;2023-04-01T23:24:30;5.57;;;3.10;;
7529;SDS011;3806;52.270;10.544;2023-04-01T23:27:03;7.55;;;3.22;;
7529;SDS011;3806;52.270;10.544;2023-04-01T23:29:39;6.47;;;3.17;;
7529;SDS011;3806;52.270;10.544;2023-04-01T23:32:05;6.57;;;2.90;;
7529;SDS011;3806;52.270;10.544;2023-04-01T23:34:40;3.92;;;2.80;;
7529;SDS011;3806;52.270;10.544;2023-04-01T23:37:15;3.78;;;2.53;;
7529;SDS011;3806;52.270;10.544;2023-04-01T23:39:44;6.43;;;2.88;;